Aérodrome :
LOGIN :

S'inscrire | Disclaimer

   EN    FR    IT 

 










Légende :    VFR   VFR Marginal   IFR   IFR Intensif   IFR Très Intensif
Visi : 
Plafond : 
>= 8 km
>= 3000ft
5 à 8 km
1000 à 3000 ft
1500m à 5 km
500 à 1000 ft
800 à 1500m
200 à 500 ft
< 800m
< 200 ft
Symboles :   Orages  Brouillard  Fortes neiges  Fortes précipitations  Vent > 20 kt
SIGMETs :   Divers  Orages  Givrage  Turbulence  Onde Orograph.  Cendres Volcan.






- Altitude de l'aérodrome : 137 ft
- Code IATA : THN


ESGT - Trollhattan-Vanersborg

DERNIER METAR :
  • 250720Z AUTO 14005KT 9999 NCD 01/M01 Q1011

METARs EXPIRÉS :
  • 250650Z AUTO 14005KT 120V210 9999 NCD 01/M01 Q1010
  • 250620Z AUTO 15005KT 9999 NCD 01/00 Q1010
  • 250550Z AUTO 22005KT 9999 FEW100/// 02/00 Q1010
  • 250520Z AUTO 23005KT 9999 NCD 03/01 Q1010
  • 250450Z AUTO 23008KT 9999 FEW220/// 03/01 Q1009

Prévision TAF périmée.



MET'MAP, la Météo Aéronautique d'un coup d'oeil ! - Copyright ORBIFLY Décembre 2007 - Disclaimer

ORBIFLY MET'MAP TEAM :

Programmation & Développement : Alexandra Zaïnal
Sur une idée originale de : Baudouin d'Aumeries
Assistance à la programmation : Marc-Olivier Méhu
Soutien technique & logistique : Manuel Goepfert

Contact : metmap@orbifly.com




SOURCES & CREDITS :

   NOAA